Time;durP1;ratioP1;P1;durP2;ratioP2;P2;SDS_P1;SDS_P2;PMS_P1;PMS_P2;Temp;Humidity;BMP_temperature;BMP_pressure;BME280_temperature;BME280_humidity;BME280_pressure;Samples;Min_cycle;Max_cycle;Signal;HPM_P1;HPM_P2
2022/12/05 00:02:08;;;;;;;42.70;38.10;;;;;;;;;;5120047;28;20567;-67
2022/12/05 00:04:36;;;;;;;41.40;37.00;;;;;;;;;;5119720;28;20230;-67
2022/12/05 00:07:04;;;;;;;41.90;37.40;;;;;;;;;;5115360;28;20281;-67
2022/12/05 00:09:32;;;;;;;41.10;36.65;;;;;;;;;;5120551;28;20264;-68
2022/12/05 00:12:00;;;;;;;40.30;35.92;;;;;;;;;;5120986;28;20297;-67
2022/12/05 00:14:29;;;;;;;38.97;34.88;;;;;;;;;;5119796;28;20244;-68
2022/12/05 00:16:57;;;;;;;38.83;34.72;;;;;;;;;;5119655;28;20282;-67
2022/12/05 00:19:24;;;;;;;38.95;34.83;;;;;;;;;;5119328;28;20199;-68
2022/12/05 00:21:52;;;;;;;38.67;34.45;;;;;;;;;;5120596;28;20286;-68
2022/12/05 00:24:20;;;;;;;37.40;33.38;;;;;;;;;;5120456;27;20235;-67
2022/12/05 00:26:48;;;;;;;35.65;31.85;;;;;;;;;;5120738;28;20576;-67
2022/12/05 00:29:15;;;;;;;34.83;31.23;;;;;;;;;;5119594;28;20209;-67
2022/12/05 00:31:45;;;;;;;35.47;31.75;;;;;;;;;;5119815;28;20203;-68
2022/12/05 00:34:12;;;;;;;35.88;32.10;;;;;;;;;;5118716;28;20195;-67
2022/12/05 00:36:41;;;;;;;33.22;29.60;;;;;;;;;;5120189;28;20594;-67
2022/12/05 00:39:09;;;;;;;33.40;29.90;;;;;;;;;;5120103;28;20206;-67
2022/12/05 00:41:37;;;;;;;32.13;28.83;;;;;;;;;;5119850;28;20238;-67
2022/12/05 00:44:05;;;;;;;31.98;28.60;;;;;;;;;;5119889;28;20206;-67
2022/12/05 00:46:34;;;;;;;30.92;27.80;;;;;;;;;;5120229;28;20199;-68
2022/12/05 00:49:04;;;;;;;30.55;27.25;;;;;;;;;;5120243;28;20199;-68
2022/12/05 00:51:33;;;;;;;30.55;27.45;;;;;;;;;;5120165;28;20545;-67
2022/12/05 00:54:02;;;;;;;29.15;26.15;;;;;;;;;;5120726;28;20621;-67
2022/12/05 00:56:31;;;;;;;29.50;26.33;;;;;;;;;;5119289;28;20195;-67
2022/12/05 00:58:59;;;;;;;28.63;25.67;;;;;;;;;;5119951;28;20566;-67
2022/12/05 01:01:28;;;;;;;28.33;25.25;;;;;;;;;;5119438;28;20202;-67
2022/12/05 01:03:57;;;;;;;27.50;24.70;;;;;;;;;;5119846;28;20207;-67
2022/12/05 01:06:27;;;;;;;27.77;24.88;;;;;;;;;;5118904;28;20272;-67
2022/12/05 01:08:55;;;;;;;26.83;24.02;;;;;;;;;;5118240;28;20203;-68
2022/12/05 01:11:24;;;;;;;27.02;24.15;;;;;;;;;;5119004;28;20298;-68
2022/12/05 01:13:51;;;;;;;25.30;22.70;;;;;;;;;;5119653;28;20203;-67
2022/12/05 01:16:20;;;;;;;26.20;23.52;;;;;;;;;;5119564;28;20202;-68
2022/12/05 01:18:48;;;;;;;25.75;23.05;;;;;;;;;;5119773;28;20271;-67
2022/12/05 01:21:16;;;;;;;24.55;22.00;;;;;;;;;;5119348;28;20226;-68
2022/12/05 01:23:45;;;;;;;25.30;22.70;;;;;;;;;;5113838;28;20235;-68
2022/12/05 01:26:14;;;;;;;24.25;21.65;;;;;;;;;;5117425;28;20313;-67
2022/12/05 01:28:42;;;;;;;24.15;21.67;;;;;;;;;;5119122;28;20203;-68
2022/12/05 01:31:11;;;;;;;24.50;21.98;;;;;;;;;;5119498;28;20226;-67
2022/12/05 01:33:39;;;;;;;22.58;20.27;;;;;;;;;;5119068;28;20284;-67
2022/12/05 01:36:11;;;;;;;22.83;20.42;;;;;;;;;;5119049;28;20448;-68
2022/12/05 01:38:39;;;;;;;22.20;19.98;;;;;;;;;;5119241;28;20594;-67
2022/12/05 01:41:10;;;;;;;22.95;20.55;;;;;;;;;;5119189;28;20209;-67
2022/12/05 01:43:52;;;;;;;21.65;19.45;;;;;;;;;;5119266;28;20222;-67
2022/12/05 01:46:20;;;;;;;21.95;19.67;;;;;;;;;;5118859;28;20233;-67
2022/12/05 01:48:48;;;;;;;20.70;18.60;;;;;;;;;;5119151;28;20203;-67
2022/12/05 01:51:15;;;;;;;21.92;19.63;;;;;;;;;;5118874;28;20199;-67
2022/12/05 01:53:43;;;;;;;21.55;19.40;;;;;;;;;;5118996;28;20587;-66
2022/12/05 01:56:13;;;;;;;20.60;18.42;;;;;;;;;;5119127;28;20191;-67
2022/12/05 01:58:42;;;;;;;21.42;19.25;;;;;;;;;;5118778;28;20587;-68
2022/12/05 02:01:10;;;;;;;20.60;18.40;;;;;;;;;;5118435;28;20244;-67
2022/12/05 02:03:38;;;;;;;19.30;17.30;;;;;;;;;;5118349;28;20729;-67
2022/12/05 02:06:06;;;;;;;20.23;18.17;;;;;;;;;;5118073;28;20230;-67
2022/12/05 02:08:34;;;;;;;19.98;18.00;;;;;;;;;;5118513;28;20203;-67
2022/12/05 02:11:02;;;;;;;19.10;17.20;;;;;;;;;;5118607;28;20195;-67
2022/12/05 02:13:37;;;;;;;19.15;17.25;;;;;;;;;;5118351;28;20245;-68
2022/12/05 02:16:09;;;;;;;18.77;16.88;;;;;;;;;;5118316;28;20197;-67
2022/12/05 02:18:42;;;;;;;18.90;16.95;;;;;;;;;;5118292;28;20668;-68
2022/12/05 02:21:34;;;;;;;18.58;16.67;;;;;;;;;;5118590;28;20481;-67
2022/12/05 02:24:09;;;;;;;19.00;17.20;;;;;;;;;;5101680;27;20570;-67
2022/12/05 02:26:54;;;;;;;18.15;16.35;;;;;;;;;;5138645;27;20217;-67
2022/12/05 02:29:52;;;;;;;17.50;15.70;;;;;;;;;;5122715;27;20202;-67
2022/12/05 02:32:27;;;;;;;17.70;15.82;;;;;;;;;;5137484;27;20280;-67
2022/12/05 02:34:58;;;;;;;17.25;15.55;;;;;;;;;;5137837;27;20202;-67
2022/12/05 02:37:29;;;;;;;16.90;15.20;;;;;;;;;;5138550;27;20538;-67
2022/12/05 02:40:02;;;;;;;17.23;15.52;;;;;;;;;;5138259;27;20607;-67
2022/12/05 02:42:32;;;;;;;19.20;17.20;;;;;;;;;;5138001;27;20591;-67
2022/12/05 02:45:02;;;;;;;18.15;16.35;;;;;;;;;;5137746;27;20793;-67
2022/12/05 02:47:34;;;;;;;18.73;16.75;;;;;;;;;;5138730;27;20210;-67
2022/12/05 02:50:04;;;;;;;17.02;15.32;;;;;;;;;;5137956;27;20604;-67
2022/12/05 02:52:32;;;;;;;17.75;15.95;;;;;;;;;;5138319;27;20289;-67
2022/12/05 02:55:01;;;;;;;17.50;15.70;;;;;;;;;;5137984;27;20247;-67
2022/12/05 02:57:28;;;;;;;17.63;15.90;;;;;;;;;;5138592;27;20478;-68
2022/12/05 02:59:56;;;;;;;16.42;14.85;;;;;;;;;;5137454;27;20608;-67
2022/12/05 03:02:25;;;;;;;16.52;14.82;;;;;;;;;;5138126;27;20202;-67
2022/12/05 03:04:55;;;;;;;15.82;14.25;;;;;;;;;;5136434;27;20198;-67
2022/12/05 03:07:23;;;;;;;17.67;14.93;;;;;;;;;;5137841;27;20585;-67
2022/12/05 03:09:55;;;;;;;16.38;14.48;;;;;;;;;;5137235;27;20205;-67
2022/12/05 03:12:24;;;;;;;15.30;13.70;;;;;;;;;;5137549;27;20206;-67
2022/12/05 03:14:54;;;;;;;16.20;14.48;;;;;;;;;;5137275;27;20586;-67
2022/12/05 03:17:24;;;;;;;15.15;13.55;;;;;;;;;;5136725;27;20296;-67
2022/12/05 03:19:58;;;;;;;14.63;13.13;;;;;;;;;;5137568;27;20198;-68
2022/12/05 03:22:29;;;;;;;14.93;13.43;;;;;;;;;;5137449;28;20289;-68
2022/12/05 03:24:56;;;;;;;22.95;20.75;;;;;;;;;;5137778;28;20679;-67
2022/12/05 03:27:27;;;;;;;19.95;17.95;;;;;;;;;;5138209;28;20202;-67
2022/12/05 03:29:56;;;;;;;18.48;16.67;;;;;;;;;;5137521;28;20198;-67
2022/12/05 03:32:25;;;;;;;17.98;16.27;;;;;;;;;;5137018;28;20225;-67
2022/12/05 03:35:01;;;;;;;18.10;16.38;;;;;;;;;;5135544;27;20191;-67
2022/12/05 03:37:33;;;;;;;17.85;16.15;;;;;;;;;;5142322;27;20201;-67
2022/12/05 03:40:06;;;;;;;17.33;15.60;;;;;;;;;;5141123;27;20198;-67
2022/12/05 03:42:35;;;;;;;17.65;15.95;;;;;;;;;;5141502;27;20499;-68
2022/12/05 03:45:07;;;;;;;17.15;15.40;;;;;;;;;;5141742;27;20217;-67
2022/12/05 03:47:40;;;;;;;17.02;15.32;;;;;;;;;;5141031;27;20198;-68
2022/12/05 03:50:12;;;;;;;16.52;14.93;;;;;;;;;;5141223;27;20214;-67
2022/12/05 03:52:43;;;;;;;16.48;14.77;;;;;;;;;;5142074;27;20202;-67
2022/12/05 03:55:12;;;;;;;16.25;14.70;;;;;;;;;;5140423;27;20209;-67
2022/12/05 03:57:43;;;;;;;15.55;14.05;;;;;;;;;;5141116;27;20277;-67
2022/12/05 04:00:13;;;;;;;15.80;14.15;;;;;;;;;;5141308;27;20305;-67
2022/12/05 04:02:45;;;;;;;15.57;14.05;;;;;;;;;;5141502;27;20285;-67
2022/12/05 04:05:17;;;;;;;15.77;14.27;;;;;;;;;;5138201;27;20277;-67
2022/12/05 04:07:47;;;;;;;15.27;13.77;;;;;;;;;;5141590;27;20208;-67
2022/12/05 04:10:16;;;;;;;15.05;13.55;;;;;;;;;;5141357;27;20198;-67
2022/12/05 04:12:46;;;;;;;14.75;13.35;;;;;;;;;;5141261;27;20259;-68
2022/12/05 04:15:16;;;;;;;14.23;12.82;;;;;;;;;;5140558;27;20210;-68
2022/12/05 04:17:45;;;;;;;14.05;12.68;;;;;;;;;;5140473;27;20281;-67
2022/12/05 04:23:02;;;;;;;14.15;12.80;;;;;;;;;;5140316;27;20197;-68
2022/12/05 04:25:36;;;;;;;13.13;11.93;;;;;;;;;;5139649;27;20294;-67
2022/12/05 04:28:11;;;;;;;14.48;13.10;;;;;;;;;;5141370;27;20281;-67
2022/12/05 04:30:41;;;;;;;12.63;11.32;;;;;;;;;;5141047;27;20504;-68
2022/12/05 04:33:11;;;;;;;13.63;12.23;;;;;;;;;;5141102;27;20304;-67
2022/12/05 04:35:42;;;;;;;13.32;12.07;;;;;;;;;;5140295;27;20199;-68
2022/12/05 04:38:14;;;;;;;12.75;11.55;;;;;;;;;;5139375;27;20194;-67
2022/12/05 04:40:45;;;;;;;12.88;11.57;;;;;;;;;;5139305;27;20594;-67
2022/12/05 04:43:13;;;;;;;12.52;11.32;;;;;;;;;;5140836;27;20195;-67
2022/12/05 04:45:42;;;;;;;13.05;11.77;;;;;;;;;;5139604;27;20218;-67
2022/12/05 04:48:13;;;;;;;13.40;12.10;;;;;;;;;;5140441;27;20214;-67
2022/12/05 04:50:43;;;;;;;12.38;11.27;;;;;;;;;;5140016;27;20206;-67
2022/12/05 04:53:11;;;;;;;12.77;11.43;;;;;;;;;;5139787;27;20199;-67
2022/12/05 04:55:43;;;;;;;12.30;11.10;;;;;;;;;;5139376;27;20206;-67
2022/12/05 04:58:12;;;;;;;11.57;10.48;;;;;;;;;;5139984;27;20194;-68
2022/12/05 05:00:46;;;;;;;12.00;10.80;;;;;;;;;;5140207;27;20471;-67
2022/12/05 05:03:17;;;;;;;11.32;10.23;;;;;;;;;;5139327;27;20209;-68
2022/12/05 05:05:47;;;;;;;11.65;10.55;;;;;;;;;;5139510;27;20678;-67
2022/12/05 05:08:18;;;;;;;12.02;10.85;;;;;;;;;;5139104;27;20202;-67
2022/12/05 05:10:53;;;;;;;11.88;10.68;;;;;;;;;;5138584;27;20209;-67
2022/12/05 05:13:20;;;;;;;11.52;10.43;;;;;;;;;;5139195;27;20193;-68
2022/12/05 05:15:48;;;;;;;11.77;10.68;;;;;;;;;;5138694;27;20283;-67
2022/12/05 05:18:15;;;;;;;11.27;10.18;;;;;;;;;;5140040;27;20202;-67
2022/12/05 05:20:42;;;;;;;11.27;10.18;;;;;;;;;;5138915;27;20198;-67
2022/12/05 05:23:12;;;;;;;11.38;10.27;;;;;;;;;;5138336;27;20277;-68
2022/12/05 05:25:39;;;;;;;10.90;9.90;;;;;;;;;;5139199;27;20202;-67
2022/12/05 05:28:07;;;;;;;12.35;11.15;;;;;;;;;;5138416;27;20199;-67
2022/12/05 05:30:34;;;;;;;10.93;9.93;;;;;;;;;;5139713;27;20202;-67
2022/12/05 05:33:02;;;;;;;10.02;9.07;;;;;;;;;;5138786;27;20198;-67
2022/12/05 05:35:29;;;;;;;11.65;10.45;;;;;;;;;;5137303;27;20225;-67
2022/12/05 05:37:57;;;;;;;10.40;9.40;;;;;;;;;;5129763;27;20209;-67
2022/12/05 05:40:26;;;;;;;11.60;10.50;;;;;;;;;;5137509;27;20199;-67
2022/12/05 05:42:53;;;;;;;11.48;10.38;;;;;;;;;;5138890;27;20199;-67
2022/12/05 05:45:20;;;;;;;10.85;9.80;;;;;;;;;;5137741;27;20195;-68
2022/12/05 05:47:49;;;;;;;10.73;9.75;;;;;;;;;;5138218;27;20229;-67
2022/12/05 05:50:16;;;;;;;11.57;10.38;;;;;;;;;;5138168;27;20198;-67
2022/12/05 05:52:43;;;;;;;11.55;10.45;;;;;;;;;;5137894;27;20211;-67
2022/12/05 05:55:11;;;;;;;10.88;9.77;;;;;;;;;;5136983;27;20207;-67
2022/12/05 05:57:40;;;;;;;10.50;9.50;;;;;;;;;;5135887;27;20628;-67
2022/12/05 06:00:08;;;;;;;9.98;9.07;;;;;;;;;;5136843;27;20208;-68
2022/12/05 06:02:35;;;;;;;10.40;9.40;;;;;;;;;;5135852;27;20199;-68
2022/12/05 06:05:03;;;;;;;11.70;10.57;;;;;;;;;;5135913;27;20198;-67
2022/12/05 06:07:30;;;;;;;11.30;10.20;;;;;;;;;;5136690;27;20248;-67
2022/12/05 06:09:58;;;;;;;10.50;9.50;;;;;;;;;;5135614;27;20205;-67
2022/12/05 06:12:25;;;;;;;10.27;9.27;;;;;;;;;;5136071;27;20701;-67
2022/12/05 06:14:54;;;;;;;10.32;9.32;;;;;;;;;;5135539;27;20193;-68
2022/12/05 06:17:21;;;;;;;10.25;9.25;;;;;;;;;;5133942;27;20203;-67
2022/12/05 06:19:49;;;;;;;10.48;9.48;;;;;;;;;;5134216;27;20195;-67
2022/12/05 06:22:16;;;;;;;10.35;9.32;;;;;;;;;;5136411;27;20194;-68
2022/12/05 06:24:44;;;;;;;53.65;48.20;;;;;;;;;;5136307;27;20233;-67
2022/12/05 06:27:11;;;;;;;37.65;33.85;;;;;;;;;;5136577;27;20218;-67
2022/12/05 06:29:39;;;;;;;34.10;30.67;;;;;;;;;;5137280;27;20263;-66
2022/12/05 06:32:07;;;;;;;30.92;27.92;;;;;;;;;;5136978;27;20263;-67
2022/12/05 06:34:35;;;;;;;29.80;26.77;;;;;;;;;;5136895;27;20267;-67
2022/12/05 06:37:03;;;;;;;30.05;27.05;;;;;;;;;;5137133;27;20208;-66
2022/12/05 06:39:30;;;;;;;29.77;26.67;;;;;;;;;;5136560;27;20744;-67
2022/12/05 06:41:57;;;;;;;29.13;26.27;;;;;;;;;;5137143;27;20202;-66
2022/12/05 06:44:25;;;;;;;29.08;26.17;;;;;;;;;;5135953;27;20202;-66
2022/12/05 06:46:53;;;;;;;28.45;25.70;;;;;;;;;;5136136;27;20241;-69
2022/12/05 06:49:24;;;;;;;28.70;25.90;;;;;;;;;;5135178;27;20202;-66
2022/12/05 06:51:52;;;;;;;27.42;24.73;;;;;;;;;;5135972;27;20354;-68
2022/12/05 06:54:19;;;;;;;27.83;24.88;;;;;;;;;;5136041;27;20203;-67
2022/12/05 06:56:47;;;;;;;27.73;25.02;;;;;;;;;;5136540;27;20203;-69
2022/12/05 06:59:14;;;;;;;27.25;24.48;;;;;;;;;;5136544;27;20201;-67
2022/12/05 07:01:41;;;;;;;28.55;25.85;;;;;;;;;;5135946;27;20205;-68
2022/12/05 07:04:10;;;;;;;30.88;27.85;;;;;;;;;;5136591;27;20206;-66
2022/12/05 07:06:39;;;;;;;30.25;27.25;;;;;;;;;;5136710;27;20214;-67
2022/12/05 07:09:07;;;;;;;29.17;26.27;;;;;;;;;;5135907;27;20203;-68
2022/12/05 07:11:34;;;;;;;29.65;26.55;;;;;;;;;;5136296;27;20213;-67
2022/12/05 07:14:02;;;;;;;29.17;26.27;;;;;;;;;;5136367;27;20267;-67
2022/12/05 07:16:29;;;;;;;27.88;24.98;;;;;;;;;;5136283;27;20198;-68
2022/12/05 07:18:57;;;;;;;27.15;24.48;;;;;;;;;;5135558;27;20285;-68
2022/12/05 07:21:24;;;;;;;26.73;23.95;;;;;;;;;;5135837;27;20517;-68
2022/12/05 07:23:53;;;;;;;26.80;24.17;;;;;;;;;;5135810;28;20226;-68
2022/12/05 07:26:21;;;;;;;26.10;23.52;;;;;;;;;;5136384;28;20202;-68
2022/12/05 07:28:50;;;;;;;25.27;22.58;;;;;;;;;;5136523;28;20202;-68
2022/12/05 07:31:18;;;;;;;24.75;22.25;;;;;;;;;;5136292;27;20197;-68
2022/12/05 07:33:46;;;;;;;25.10;22.60;;;;;;;;;;5136018;28;20198;-68
2022/12/05 07:36:14;;;;;;;24.33;21.92;;;;;;;;;;5135910;28;20389;-68
2022/12/05 07:38:42;;;;;;;25.27;22.58;;;;;;;;;;5136317;28;20225;-67
2022/12/05 07:41:11;;;;;;;24.20;21.70;;;;;;;;;;5135966;28;20698;-68
2022/12/05 07:43:39;;;;;;;23.38;21.10;;;;;;;;;;5135902;28;20194;-67
2022/12/05 07:46:07;;;;;;;23.15;20.85;;;;;;;;;;5133575;28;20301;-67
2022/12/05 07:48:34;;;;;;;22.20;20.00;;;;;;;;;;5118078;28;20215;-67
2022/12/05 07:51:02;;;;;;;22.63;20.33;;;;;;;;;;5114950;28;20602;-67
2022/12/05 07:53:30;;;;;;;22.75;20.45;;;;;;;;;;5114757;28;20264;-68
2022/12/05 07:56:00;;;;;;;22.15;19.85;;;;;;;;;;5115004;28;20234;-67
2022/12/05 07:58:29;;;;;;;22.55;20.27;;;;;;;;;;5114897;28;20210;-67
2022/12/05 08:00:57;;;;;;;21.23;19.23;;;;;;;;;;5114927;28;20202;-68
2022/12/05 08:03:24;;;;;;;21.10;19.10;;;;;;;;;;5134136;28;20210;-67
2022/12/05 08:05:51;;;;;;;20.67;18.73;;;;;;;;;;5135673;28;20205;-68
2022/12/05 08:08:19;;;;;;;20.50;18.40;;;;;;;;;;5135892;28;20232;-67
2022/12/05 08:10:46;;;;;;;20.60;18.50;;;;;;;;;;5135645;28;20214;-68
2022/12/05 08:13:14;;;;;;;20.27;18.38;;;;;;;;;;5134987;28;20206;-67
2022/12/05 08:15:42;;;;;;;18.77;16.85;;;;;;;;;;5134816;28;20202;-68
2022/12/05 08:18:10;;;;;;;19.30;17.42;;;;;;;;;;5132735;27;20199;-67
2022/12/05 08:20:37;;;;;;;18.98;17.17;;;;;;;;;;5129634;28;20198;-68
2022/12/05 08:23:04;;;;;;;18.35;16.65;;;;;;;;;;5124271;27;20192;-68
2022/12/05 08:25:32;;;;;;;18.95;17.10;;;;;;;;;;5137037;27;20210;-68
2022/12/05 08:27:59;;;;;;;18.23;16.52;;;;;;;;;;5137789;27;20214;-67
2022/12/05 08:30:27;;;;;;;18.42;16.63;;;;;;;;;;5138321;27;20205;-67
2022/12/05 08:32:55;;;;;;;17.60;15.90;;;;;;;;;;5138642;27;20202;-67
2022/12/05 08:35:23;;;;;;;18.33;16.52;;;;;;;;;;5138151;27;20205;-68
2022/12/05 08:37:50;;;;;;;17.45;15.75;;;;;;;;;;5138958;27;20194;-68
2022/12/05 08:40:18;;;;;;;17.52;15.73;;;;;;;;;;5138088;27;20280;-68
2022/12/05 08:42:45;;;;;;;18.85;17.05;;;;;;;;;;5138691;27;20641;-68
2022/12/05 08:45:13;;;;;;;17.65;15.90;;;;;;;;;;5138382;27;20565;-68
2022/12/05 08:47:40;;;;;;;16.63;15.02;;;;;;;;;;5139530;27;20868;-67
2022/12/05 08:50:10;;;;;;;15.70;14.20;;;;;;;;;;5138187;27;20198;-68
2022/12/05 08:52:37;;;;;;;16.08;14.57;;;;;;;;;;5138549;27;20570;-67
2022/12/05 08:55:04;;;;;;;15.48;13.98;;;;;;;;;;5137976;27;20198;-67
2022/12/05 08:57:32;;;;;;;15.48;14.07;;;;;;;;;;5138956;27;20302;-68
2022/12/05 08:59:59;;;;;;;15.50;14.00;;;;;;;;;;5137975;27;20198;-68
2022/12/05 09:02:27;;;;;;;15.63;14.13;;;;;;;;;;5137704;27;20670;-67
2022/12/05 09:04:54;;;;;;;15.20;13.70;;;;;;;;;;5137438;27;20213;-68
2022/12/05 09:07:23;;;;;;;15.25;13.75;;;;;;;;;;5137577;27;20226;-68
2022/12/05 09:09:51;;;;;;;14.98;13.57;;;;;;;;;;5138278;27;20212;-68
2022/12/05 09:12:18;;;;;;;15.13;13.63;;;;;;;;;;5137355;27;20206;-67
2022/12/05 09:14:45;;;;;;;13.98;12.60;;;;;;;;;;5137766;27;20312;-68
2022/12/05 09:17:13;;;;;;;14.60;13.20;;;;;;;;;;5137299;27;20225;-68
2022/12/05 09:19:41;;;;;;;14.60;13.10;;;;;;;;;;5137838;27;20195;-67
2022/12/05 09:22:08;;;;;;;13.65;12.35;;;;;;;;;;5136299;27;20198;-68
2022/12/05 09:24:37;;;;;;;14.20;12.88;;;;;;;;;;5137466;27;20260;-68
2022/12/05 09:27:04;;;;;;;14.07;12.77;;;;;;;;;;5137841;27;20293;-67
2022/12/05 09:29:32;;;;;;;13.23;12.00;;;;;;;;;;5137990;27;20570;-68
2022/12/05 09:32:00;;;;;;;13.40;12.10;;;;;;;;;;5137821;27;20198;-68
2022/12/05 09:34:28;;;;;;;13.98;12.68;;;;;;;;;;5138497;27;20688;-68
2022/12/05 09:36:56;;;;;;;13.60;12.30;;;;;;;;;;5137973;27;20529;-68
2022/12/05 09:39:24;;;;;;;13.50;12.30;;;;;;;;;;5137262;27;20214;-68
2022/12/05 09:42:11;;;;;;;14.02;12.73;;;;;;;;;;5138191;27;20247;-68
2022/12/05 09:44:44;;;;;;;13.20;12.00;;;;;;;;;;5136827;27;20210;-68
2022/12/05 09:47:14;;;;;;;13.32;12.02;;;;;;;;;;5137312;27;20814;-67
2022/12/05 09:49:47;;;;;;;13.30;11.93;;;;;;;;;;5136838;27;20570;-67
2022/12/05 09:52:15;;;;;;;12.70;11.43;;;;;;;;;;5137257;27;20214;-67
2022/12/05 09:54:43;;;;;;;12.23;11.10;;;;;;;;;;5137561;27;20203;-67
2022/12/05 09:57:12;;;;;;;12.35;11.18;;;;;;;;;;5136261;27;20200;-67
2022/12/05 09:59:40;;;;;;;12.20;11.00;;;;;;;;;;5136589;27;20202;-67
2022/12/05 10:02:14;;;;;;;12.40;11.30;;;;;;;;;;5136702;27;20209;-67
2022/12/05 10:04:56;;;;;;;12.00;10.90;;;;;;;;;;5136990;27;20593;-68
2022/12/05 10:07:26;;;;;;;11.85;10.75;;;;;;;;;;5136795;27;20593;-68
2022/12/05 10:09:56;;;;;;;11.20;10.20;;;;;;;;;;5136174;27;20573;-68
2022/12/05 10:12:36;;;;;;;11.13;10.13;;;;;;;;;;5136118;27;20229;-68
2022/12/05 10:15:05;;;;;;;11.82;10.63;;;;;;;;;;5136744;27;20202;-68
2022/12/05 10:17:34;;;;;;;11.23;10.23;;;;;;;;;;5136837;27;20195;-67
2022/12/05 10:20:04;;;;;;;11.57;10.48;;;;;;;;;;5136940;27;20220;-68
2022/12/05 10:22:46;;;;;;;11.60;10.50;;;;;;;;;;5136679;27;20547;-68
2022/12/05 10:25:17;;;;;;;11.82;10.68;;;;;;;;;;5136574;27;20230;-68
2022/12/05 10:27:48;;;;;;;11.73;10.63;;;;;;;;;;5136659;27;20226;-68
2022/12/05 10:30:16;;;;;;;11.32;10.27;;;;;;;;;;5136511;27;20198;-67
2022/12/05 10:32:50;;;;;;;10.50;9.52;;;;;;;;;;5135341;27;20207;-68
2022/12/05 10:35:18;;;;;;;10.77;9.68;;;;;;;;;;5135872;27;20234;-67
2022/12/05 10:37:48;;;;;;;10.82;9.82;;;;;;;;;;5135722;27;20198;-68
2022/12/05 10:40:16;;;;;;;11.00;9.90;;;;;;;;;;5135583;27;20206;-68
2022/12/05 10:42:44;;;;;;;9.85;8.95;;;;;;;;;;5135750;27;20198;-67
2022/12/05 10:45:17;;;;;;;10.13;9.23;;;;;;;;;;5134406;27;20489;-68
2022/12/05 10:47:44;;;;;;;9.82;8.93;;;;;;;;;;5134394;27;20214;-68
2022/12/05 10:50:20;;;;;;;10.15;9.23;;;;;;;;;;5135308;27;20194;-68
2022/12/05 10:52:48;;;;;;;10.30;9.30;;;;;;;;;;5134684;27;20477;-67
2022/12/05 10:55:18;;;;;;;9.70;8.80;;;;;;;;;;5135771;27;20205;-68
2022/12/05 10:57:48;;;;;;;10.23;9.25;;;;;;;;;;5134994;27;20208;-67
2022/12/05 11:00:20;;;;;;;9.80;8.93;;;;;;;;;;5135500;27;20228;-68
2022/12/05 11:02:48;;;;;;;10.07;9.07;;;;;;;;;;5135671;27;20206;-67
2022/12/05 11:05:16;;;;;;;9.75;8.85;;;;;;;;;;5135708;27;20202;-67
2022/12/05 11:07:48;;;;;;;9.20;8.30;;;;;;;;;;5135466;27;20605;-67
2022/12/05 11:10:20;;;;;;;9.38;8.48;;;;;;;;;;5134664;27;20202;-66
2022/12/05 11:12:48;;;;;;;9.68;8.77;;;;;;;;;;5134846;27;20210;-66
2022/12/05 11:15:24;;;;;;;9.00;8.20;;;;;;;;;;5135400;27;20232;-67
2022/12/05 11:17:51;;;;;;;8.88;8.07;;;;;;;;;;5135595;27;20202;-67
2022/12/05 11:20:36;;;;;;;8.88;8.05;;;;;;;;;;5134114;27;20197;-67
2022/12/05 11:23:17;;;;;;;8.57;7.80;;;;;;;;;;5135229;27;20267;-66
2022/12/05 11:25:45;;;;;;;9.13;8.32;;;;;;;;;;5134514;27;20202;-67
2022/12/05 11:28:24;;;;;;;8.48;7.68;;;;;;;;;;5135330;28;20226;-67
2022/12/05 11:30:58;;;;;;;8.02;7.32;;;;;;;;;;5134491;28;20486;-67
2022/12/05 11:33:27;;;;;;;8.13;7.43;;;;;;;;;;5135001;28;20206;-67
2022/12/05 11:35:56;;;;;;;8.32;7.53;;;;;;;;;;5134818;28;20214;-67
2022/12/05 11:38:26;;;;;;;8.10;7.35;;;;;;;;;;5134928;28;20487;-66
2022/12/05 11:40:54;;;;;;;7.55;6.90;;;;;;;;;;5135008;28;20734;-67
2022/12/05 11:43:39;;;;;;;8.32;7.53;;;;;;;;;;5134599;28;20615;-66
2022/12/05 11:46:11;;;;;;;8.00;7.22;;;;;;;;;;5134887;28;20208;-67
2022/12/05 11:48:50;;;;;;;7.50;6.80;;;;;;;;;;5134377;28;20283;-67
2022/12/05 11:51:24;;;;;;;7.65;6.90;;;;;;;;;;5134674;28;20202;-66
2022/12/05 11:54:18;;;;;;;7.38;6.78;;;;;;;;;;5134597;28;20211;-66
2022/12/05 11:56:49;;;;;;;7.47;6.85;;;;;;;;;;5087512;27;20209;-67
2022/12/05 11:59:32;;;;;;;7.88;7.18;;;;;;;;;;5138335;27;20195;-67
2022/12/05 12:02:06;;;;;;;7.38;6.68;;;;;;;;;;5135568;27;20304;-67
2022/12/05 12:04:39;;;;;;;6.50;5.90;;;;;;;;;;5139054;27;20583;-66
2022/12/05 12:07:15;;;;;;;7.20;6.60;;;;;;;;;;5138449;27;20202;-67
2022/12/05 12:09:49;;;;;;;7.05;6.35;;;;;;;;;;5139044;27;20260;-66
2022/12/05 12:12:21;;;;;;;6.95;6.30;;;;;;;;;;5139192;27;20212;-66
2022/12/05 12:14:51;;;;;;;7.00;6.40;;;;;;;;;;5137867;27;20208;-66
2022/12/05 12:17:26;;;;;;;7.13;6.53;;;;;;;;;;5138880;27;20751;-66
2022/12/05 12:20:11;;;;;;;6.57;6.00;;;;;;;;;;5138462;27;20200;-67
2022/12/05 12:22:46;;;;;;;6.80;6.20;;;;;;;;;;5138615;27;20237;-68
2022/12/05 12:25:24;;;;;;;6.30;5.70;;;;;;;;;;5138093;27;20233;-66
2022/12/05 12:27:54;;;;;;;6.38;5.82;;;;;;;;;;5137974;27;20204;-66
2022/12/05 12:30:23;;;;;;;6.60;6.00;;;;;;;;;;5138133;27;20489;-66
2022/12/05 12:32:57;;;;;;;6.20;5.60;;;;;;;;;;5137639;27;20198;-66
2022/12/05 12:35:28;;;;;;;6.43;5.90;;;;;;;;;;5138037;27;20212;-66
2022/12/05 12:38:01;;;;;;;6.60;6.00;;;;;;;;;;5138101;27;20289;-66
2022/12/05 12:40:31;;;;;;;6.22;5.72;;;;;;;;;;5137456;27;20609;-67
2022/12/05 12:43:03;;;;;;;6.20;5.70;;;;;;;;;;5137989;27;20297;-66
2022/12/05 12:45:36;;;;;;;6.13;5.63;;;;;;;;;;5138060;27;20194;-67
2022/12/05 12:48:10;;;;;;;5.85;5.35;;;;;;;;;;5137807;27;20202;-66
2022/12/05 12:50:41;;;;;;;5.82;5.32;;;;;;;;;;5138300;27;20274;-67
2022/12/05 12:53:24;;;;;;;5.43;4.93;;;;;;;;;;5137767;27;20209;-66
2022/12/05 12:55:55;;;;;;;6.13;5.60;;;;;;;;;;5135075;27;20224;-67
2022/12/05 12:58:29;;;;;;;6.22;5.63;;;;;;;;;;5135749;27;20725;-67
2022/12/05 13:01:02;;;;;;;5.85;5.35;;;;;;;;;;5137793;27;20250;-66
2022/12/05 13:03:35;;;;;;;5.97;5.47;;;;;;;;;;5137594;27;20703;-66
2022/12/05 13:06:05;;;;;;;5.30;4.90;;;;;;;;;;5137222;27;20206;-67
2022/12/05 13:08:37;;;;;;;5.63;5.13;;;;;;;;;;5136993;27;20316;-66
2022/12/05 13:11:06;;;;;;;5.50;5.00;;;;;;;;;;5137713;27;20207;-67
2022/12/05 13:13:36;;;;;;;5.45;4.95;;;;;;;;;;5136824;27;20202;-67
2022/12/05 13:16:06;;;;;;;5.25;4.82;;;;;;;;;;5136441;27;20194;-67
2022/12/05 13:18:35;;;;;;;5.53;5.03;;;;;;;;;;5135723;27;20199;-66
2022/12/05 13:21:04;;;;;;;5.70;5.20;;;;;;;;;;5135604;27;20501;-67
2022/12/05 13:23:32;;;;;;;5.20;4.80;;;;;;;;;;5135844;27;20238;-66
2022/12/05 13:26:00;;;;;;;5.30;4.80;;;;;;;;;;5136296;27;20202;-66
2022/12/05 13:28:29;;;;;;;5.50;5.00;;;;;;;;;;5135530;27;20232;-67
2022/12/05 13:31:02;;;;;;;4.80;4.40;;;;;;;;;;5135810;27;20201;-67
2022/12/05 13:33:36;;;;;;;5.18;4.68;;;;;;;;;;5134824;27;20238;-67
2022/12/05 13:44:33;;;;;;;4.22;3.83;;;;;;;;;;5135067;27;20250;-67
2022/12/05 13:47:01;;;;;;;5.07;4.68;;;;;;;;;;5136167;27;20208;-67
2022/12/05 13:49:32;;;;;;;4.53;4.13;;;;;;;;;;5136320;27;20222;-66
2022/12/05 13:52:07;;;;;;;4.50;4.10;;;;;;;;;;5133937;27;20198;-66
2022/12/05 13:54:35;;;;;;;4.05;3.75;;;;;;;;;;5135090;27;20210;-66
2022/12/05 13:57:04;;;;;;;4.78;4.38;;;;;;;;;;5136438;27;20511;-66
2022/12/05 13:59:49;;;;;;;4.60;4.20;;;;;;;;;;5136094;27;20209;-66
2022/12/05 14:02:32;;;;;;;4.38;4.05;;;;;;;;;;5135778;27;20608;-67
2022/12/05 14:05:01;;;;;;;3.90;3.60;;;;;;;;;;5119996;27;20202;-67
2022/12/05 14:07:42;;;;;;;4.43;4.03;;;;;;;;;;5135796;27;20206;-67
2022/12/05 14:10:11;;;;;;;4.95;4.45;;;;;;;;;;5134876;27;20218;-67
2022/12/05 14:12:50;;;;;;;4.40;4.00;;;;;;;;;;5135513;27;20209;-67
2022/12/05 14:15:34;;;;;;;4.25;3.95;;;;;;;;;;5135801;27;20231;-67
2022/12/05 14:18:07;;;;;;;4.40;4.10;;;;;;;;;;5135091;27;20205;-67
2022/12/05 14:20:48;;;;;;;4.45;4.05;;;;;;;;;;5134168;27;20198;-67
2022/12/05 14:23:24;;;;;;;4.35;3.97;;;;;;;;;;5135870;27;20205;-66
2022/12/05 14:26:02;;;;;;;4.03;3.72;;;;;;;;;;5136287;27;20198;-67
2022/12/05 14:28:53;;;;;;;4.03;3.72;;;;;;;;;;5136123;27;20793;-67
2022/12/05 14:31:38;;;;;;;3.92;3.63;;;;;;;;;;5059041;27;20220;-66
2022/12/05 14:34:11;;;;;;;3.58;3.28;;;;;;;;;;5135380;27;20597;-67
2022/12/05 14:36:40;;;;;;;4.13;3.83;;;;;;;;;;5135213;27;20198;-67
2022/12/05 14:39:20;;;;;;;3.58;3.28;;;;;;;;;;5135555;27;20657;-66
2022/12/05 14:41:56;;;;;;;4.18;3.88;;;;;;;;;;5135460;27;20245;-66
2022/12/05 14:44:29;;;;;;;3.88;3.58;;;;;;;;;;5134576;27;20208;-67
2022/12/05 14:47:01;;;;;;;3.90;3.60;;;;;;;;;;5134502;27;20210;-66
2022/12/05 14:49:35;;;;;;;4.03;3.67;;;;;;;;;;5135263;27;20269;-67
2022/12/05 14:52:10;;;;;;;3.50;3.20;;;;;;;;;;5135885;27;20233;-66
2022/12/05 14:54:38;;;;;;;3.40;3.13;;;;;;;;;;5134293;27;20216;-67